Thursday, January 29, 2015
06:17 UTC
  |  Log In   |  Register Free
Airport Search:

New Richmond Regional Airport
(KRNH)

New Richmond Regional Airport Diagram
No Airport Diagram Available

FAA data valid effective January 08, 2015 - March 05, 2015 (unless otherwise noted).

 
 
 
 
 
 
 
 
 
 
 
 
 
 

Current Aviation Weather for New Richmond Regional Airport (KRNH)

The most recent METAR observation for KRNH was updated at: 0613
METAR Summary (Translated METAR)
KRNH
290555Z AUTO 32005KT 1 1/2SM BR OVC003 M01/M01 A2985 RMK AO2 T10151015 11008 21016 410071036
KOEO
290555Z AUTO 32005KT 1 1/4SM BR OVC003 M01/M01 A2989 RMK AO2 T10101010 11003 21012 410031030
(11.6 nm NW from KRNH)
K21D
290550Z AUTO 32004KT 2SM BR OVC003 00/M01 A2987 RMK AO2
(16.2 nm SW from KRNH)
TAF Summary (Translated TAF)
KRNH
281733Z 2818/2918 15012G19KT 4SM BR OVC008 FM282300 15005KT 3SM BR OVC007 TEMPO 2902/2905 1 1/2SM -FZDZSN OVC005 FM290600 31009KT 6SM BR OVC006 FM290900 31014G24KT P6SM OVC010 FM291500 32018G26KT P6SM OVC018
  Airport Weather Conditions for KRNH

 Current Weather at RNH
29° F
Fog/Mist
Northwest winds at 5.8 mph
RNH NOAA Radar

Pressure: 29.85 in
Humidity: 100%
Wind: Northwest at 5.8 MPH (5 KT)
Dew Point: 29.3°F
Visibility: 1.50 mi


Airport Weather Forecast for KRNH

Translated METAR and TAF for KRNH
Translated METAR for KRNH (0618 UTC 29 January 2015)
found at http://aviationweather.gov/adds/metars/
 
METAR text: KRNH 290555Z AUTO 32005KT 1 1/2SM BR OVC003 M01/M01 A2985 RMK AO2 T10151015 11008 21016 410071036
Conditions at: KRNH (NEW RICHMOND MUN, WI, US) observed 0555 UTC 29 January 2015
Temperature: -1.5°C (29°F)
Dewpoint: -1.5°C (29°F) [RH = 100%]
Pressure (altimeter): 29.85 inches Hg (1010.9 mb)
Winds: from the NW (320 degrees) at 6 MPH (5 knots; 2.6 m/s)
Visibility: 1.50 miles (2.41 km)
Ceiling: 300 feet AGL
Clouds: overcast cloud deck at 300 feet AGL
Weather: BR  (mist)
Translated TAF for KRNH
Forecast for: KRNH (NEW RICHMOND MUN, WI, US)
TAF Text: KRNH 290536Z 2906/3006 33005KT 1SM BR OVC003
Forecast period: 0600 to 1000 UTC 29 January 2015
Forecast type: FROM: standard forecast or significant change
Winds: from the NNW (330 degrees) at 6 MPH (5 knots; 2.6 m/s)
Visibility: 1.00 miles (1.61 km)
Ceiling: 300 feet AGL
Clouds: overcast cloud deck at 300 feet AGL
Weather: BR  (mist)
TAF Text: TEMPO 2907/2910 4SM BR OVC007
Forecast period: 0700 to 1000 UTC 29 January 2015
Forecast type: TEMPORARY: The following changes expected for less than half the time period
Visibility: 4 miles (6 km)
Ceiling: 700 feet AGL
Clouds: overcast cloud deck at 700 feet AGL
Weather: BR  (mist)
TAF Text: FM291000 31014G24KT P6SM OVC010
Forecast period: 1000 to 1600 UTC 29 January 2015
Forecast type: FROM: standard forecast or significant change
Winds: from the NW (310 degrees) at 16 MPH (14 knots; 7.3 m/s)
gusting to 28 MPH (24 knots; 12.5 m/s)
Visibility: 6 or more miles (10+ km)
Ceiling: 1000 feet AGL
Clouds: overcast cloud deck at 1000 feet AGL
Weather: no significant weather forecast for this period
TAF Text: FM291600 32018G26KT P6SM OVC018
Forecast period: 1600 to 2200 UTC 29 January 2015
Forecast type: FROM: standard forecast or significant change
Winds: from the NW (320 degrees) at 21 MPH (18 knots; 9.4 m/s)
gusting to 30 MPH (26 knots; 13.5 m/s)
Visibility: 6 or more miles (10+ km)
Ceiling: 1800 feet AGL
Clouds: overcast cloud deck at 1800 feet AGL
Weather: no significant weather forecast for this period
TAF Text: FM292200 32015G22KT P6SM SCT020
Forecast period: 2200 UTC 29 January 2015 to 0300 UTC 30 January 2015
Forecast type: FROM: standard forecast or significant change
Winds: from the NW (320 degrees) at 17 MPH (15 knots; 7.8 m/s)
gusting to 25 MPH (22 knots; 11.4 m/s)
Visibility: 6 or more miles (10+ km)
Clouds: scattered clouds at 2000 feet AGL
Weather: no significant weather forecast for this period
TAF Text: FM300300 33009KT P6SM SKC
Forecast period: 0300 to 0600 UTC 30 January 2015
Forecast type: FROM: standard forecast or significant change
Winds: from the NNW (330 degrees) at 10 MPH (9 knots; 4.7 m/s)
Visibility: 6 or more miles (10+ km)
Clouds: clear skies
Weather: no significant weather forecast for this period

Find All Airport Services Find A Hotel Find A Rental Car Find A Golf Course Find A Restaurant $100 Hamburger



FBO's on the Field
FBO Company Facility Photos Services Transportation Aviation Fuel Prices: Prices include tax
Catering Weather Repair Courtesy Rental Type 100LL JetA JetA+ MOGAS 8087
 
Griggs Aviation

This FBO has not yet been rated
FS:Independent
Last Updated: Jan-07
Login to update fuel prices
SS:
Contact Griggs AviationMore FBO Information
 
Add another FBO Facility Photos Catering Weather Repair Courtesy Rental Type 100LL JetA JetA+ MOGAS 8087
Services Transportation Aviation Fuel Prices: Prices include tax


model-print
model-print
model-print
model-print